createdAt,value
2019-05-01T00:02:32.453Z,52.17
2019-05-01T00:05:04.574Z,57.70
2019-05-01T00:07:36.565Z,51.77
2019-05-01T00:10:07.793Z,47.10
2019-05-01T00:12:38.297Z,50.97
2019-05-01T00:15:09.856Z,49.47
2019-05-01T00:17:40.376Z,54.27
2019-05-01T00:20:11.000Z,48.90
2019-05-01T00:22:41.519Z,55.63
2019-05-01T00:25:11.877Z,53.40
2019-05-01T00:27:42.434Z,57.40
2019-05-01T00:30:15.254Z,56.60
2019-05-01T00:32:45.771Z,56.00
2019-05-01T00:35:16.193Z,54.00
2019-05-01T00:37:46.672Z,62.07
2019-05-01T00:40:17.132Z,59.40
2019-05-01T00:42:47.631Z,62.77
2019-05-01T00:45:18.055Z,54.77
2019-05-01T00:47:48.524Z,60.80
2019-05-01T00:50:18.984Z,56.23
2019-05-01T00:52:49.459Z,57.63
2019-05-01T00:55:30.877Z,67.40
2019-05-01T00:58:17.792Z,60.67
2019-05-01T01:00:50.619Z,62.07
2019-05-01T01:03:21.246Z,59.80
2019-05-01T01:05:51.700Z,63.60
2019-05-01T01:08:22.284Z,71.13
2019-05-01T01:10:52.725Z,62.03
2019-05-01T01:13:23.226Z,65.60
2019-05-01T01:15:53.572Z,75.77
2019-05-01T01:18:24.059Z,68.20
2019-05-01T01:20:54.579Z,64.97
2019-05-01T01:23:25.671Z,67.70
2019-05-01T01:25:56.075Z,63.93
2019-05-01T01:28:26.681Z,68.57
2019-05-01T01:30:57.090Z,66.67
2019-05-01T01:33:27.565Z,74.47
2019-05-01T01:35:57.996Z,69.63
2019-05-01T01:38:28.554Z,73.03
2019-05-01T01:41:00.511Z,73.90
2019-05-01T01:43:35.732Z,76.63
2019-05-01T01:46:07.922Z,76.23
2019-05-01T01:48:38.822Z,73.17
2019-05-01T01:51:09.369Z,76.13
2019-05-01T01:53:40.065Z,74.73
2019-05-01T01:56:10.497Z,76.50
2019-05-01T01:58:40.961Z,77.43
2019-05-01T02:01:13.839Z,76.10
2019-05-01T02:03:48.716Z,80.83
2019-05-01T02:06:19.342Z,80.10
2019-05-01T02:08:56.757Z,69.60
2019-05-01T02:11:24.377Z,85.37
2019-05-01T02:13:58.425Z,78.00
2019-05-01T02:16:28.866Z,82.53
2019-05-01T02:18:59.337Z,86.20
2019-05-01T02:21:29.763Z,80.00
2019-05-01T02:24:00.247Z,79.03
2019-05-01T02:26:32.284Z,82.17
2019-05-01T02:29:20.547Z,84.97
2019-05-01T02:31:53.878Z,80.13
2019-05-01T02:34:25.967Z,79.53
2019-05-01T02:36:59.300Z,86.50
2019-05-01T02:39:32.629Z,79.27
2019-05-01T02:42:04.199Z,86.73
2019-05-01T02:44:46.393Z,83.83
2019-05-01T02:47:19.744Z,87.33
2019-05-01T02:50:04.981Z,92.67
2019-05-01T02:52:37.414Z,87.67
2019-05-01T02:55:11.530Z,78.47
2019-05-01T02:57:42.545Z,84.63
2019-05-01T03:00:13.035Z,88.97
2019-05-01T03:02:44.322Z,87.30
2019-05-01T03:05:14.964Z,83.93
2019-05-01T03:07:45.994Z,85.70
2019-05-01T03:10:17.617Z,85.53
2019-05-01T03:12:50.001Z,87.07
2019-05-01T03:15:22.766Z,84.80
2019-05-01T03:18:11.198Z,84.73
2019-05-01T03:20:59.413Z,91.10
2019-05-01T03:23:31.391Z,82.70
2019-05-01T03:26:02.263Z,85.10
2019-05-01T03:28:32.791Z,82.97
2019-05-01T03:31:03.280Z,94.33
2019-05-01T03:33:34.113Z,81.63
2019-05-01T03:36:05.088Z,85.63
2019-05-01T03:38:35.600Z,91.80
2019-05-01T03:41:06.363Z,82.57
2019-05-01T03:43:37.114Z,80.57
2019-05-01T03:46:07.888Z,80.23
2019-05-01T03:48:38.730Z,86.73
2019-05-01T03:51:09.529Z,83.97
2019-05-01T03:53:40.353Z,90.80
2019-05-01T03:56:10.922Z,77.87
2019-05-01T03:58:41.634Z,76.80
2019-05-01T04:01:29.661Z,88.87
2019-05-01T04:04:05.547Z,80.40
2019-05-01T04:06:37.338Z,88.20
2019-05-01T04:09:08.155Z,87.87
2019-05-01T04:11:38.798Z,75.37
2019-05-01T04:14:09.762Z,78.27
2019-05-01T04:16:42.093Z,77.20
2019-05-01T04:19:12.621Z,77.60
2019-05-01T04:21:47.337Z,76.80
2019-05-01T04:24:18.257Z,77.87
2019-05-01T04:26:48.951Z,78.10
2019-05-01T04:29:21.082Z,77.33
2019-05-01T04:31:56.472Z,85.13
2019-05-01T04:34:43.494Z,83.10
2019-05-01T04:37:15.505Z,77.77
2019-05-01T04:39:46.358Z,67.07
2019-05-01T04:42:16.804Z,71.67
2019-05-01T04:44:47.311Z,67.83
2019-05-01T04:47:18.162Z,63.30
2019-05-01T04:49:48.600Z,63.83
2019-05-01T04:52:19.082Z,65.07
2019-05-01T04:54:49.597Z,62.43
2019-05-01T04:57:20.287Z,63.23
2019-05-01T04:59:50.824Z,62.73
2019-05-01T05:02:23.056Z,72.33
2019-05-01T05:04:54.777Z,66.33
2019-05-01T05:07:25.335Z,69.33
2019-05-01T05:09:55.760Z,67.60
2019-05-01T05:12:46.479Z,61.13
2019-05-01T05:15:30.924Z,58.87
2019-05-01T05:18:01.456Z,65.40
2019-05-01T05:20:31.948Z,67.70
2019-05-01T05:23:02.738Z,69.57
2019-05-01T05:25:33.149Z,64.67
2019-05-01T05:28:04.220Z,63.80
2019-05-01T05:30:37.078Z,66.60
2019-05-01T05:33:18.094Z,65.27
2019-05-01T05:35:43.722Z,61.13
2019-05-01T05:38:17.059Z,62.93
2019-05-01T05:40:47.612Z,63.83
2019-05-01T05:43:18.103Z,58.93
2019-05-01T05:45:48.669Z,64.83
2019-05-01T05:48:19.255Z,59.47
2019-05-01T05:51:07.747Z,60.73
2019-05-01T05:53:42.117Z,63.83
2019-05-01T05:56:16.716Z,61.57
2019-05-01T05:58:53.889Z,62.73
2019-05-01T06:01:28.768Z,58.27
2019-05-01T06:04:18.355Z,49.87
2019-05-01T06:06:59.917Z,53.33
2019-05-01T06:09:35.291Z,49.90
2019-05-01T06:12:09.041Z,57.17
2019-05-01T06:14:43.242Z,50.87
2019-05-01T06:17:15.331Z,52.77
2019-05-01T06:19:49.751Z,53.63
2019-05-01T06:22:24.394Z,45.53
2019-05-01T06:25:03.364Z,48.27
2019-05-01T06:27:34.801Z,51.57
2019-05-01T06:30:11.054Z,58.60
2019-05-01T06:32:40.462Z,50.67
2019-05-01T06:35:10.970Z,47.43
2019-05-01T06:37:47.033Z,50.03
2019-05-01T06:40:22.522Z,48.90
2019-05-01T06:42:51.264Z,43.93
2019-05-01T06:45:23.301Z,45.13
2019-05-01T06:47:58.266Z,51.23
2019-05-01T06:50:32.046Z,50.03
2019-05-01T06:53:04.742Z,57.63
2019-05-01T06:55:35.439Z,55.33
2019-05-01T06:58:06.270Z,58.93
2019-05-01T07:00:42.967Z,59.07
2019-05-01T07:03:11.698Z,59.10
2019-05-01T07:05:44.627Z,60.87
2019-05-01T07:08:24.515Z,57.77
2019-05-01T07:10:47.321Z,132.93
2019-05-01T07:13:17.946Z,50.37
2019-05-01T07:15:48.537Z,46.60
2019-05-01T07:18:24.080Z,47.80
2019-05-01T07:20:53.291Z,55.07
2019-05-01T07:23:25.487Z,55.00
2019-05-01T07:25:57.495Z,49.60
2019-05-01T07:28:34.205Z,55.17
2019-05-01T07:31:04.994Z,59.60
2019-05-01T07:33:34.656Z,55.98
2019-05-01T07:36:07.565Z,64.50
2019-05-01T07:38:40.366Z,52.27
2019-05-01T07:41:12.507Z,50.78
2019-05-01T07:43:54.886Z,49.33
2019-05-01T07:46:24.723Z,56.00
2019-05-01T07:48:56.048Z,57.90
2019-05-01T07:51:26.803Z,52.97
2019-05-01T07:53:59.042Z,50.95
2019-05-01T07:56:30.487Z,54.03
2019-05-01T07:59:01.109Z,57.00
2019-05-01T08:01:42.097Z,56.35
2019-05-01T08:04:13.751Z,46.80
2019-05-01T08:06:44.680Z,49.05
2019-05-01T08:09:16.473Z,47.30
2019-05-01T08:11:47.025Z,42.35
2019-05-01T08:14:18.672Z,45.10
2019-05-01T08:16:49.329Z,44.95
2019-05-01T08:19:27.023Z,54.88
2019-05-01T08:22:03.019Z,41.85
2019-05-01T08:24:33.563Z,38.90
2019-05-01T08:27:04.033Z,37.25
2019-05-01T08:29:52.306Z,42.80
2019-05-01T08:32:27.329Z,43.17
2019-05-01T08:35:00.538Z,56.63
2019-05-01T08:37:31.495Z,60.40
2019-05-01T08:40:01.913Z,50.00
2019-05-01T08:42:32.364Z,42.10
2019-05-01T08:45:10.039Z,40.85
2019-05-01T08:47:42.079Z,32.95
2019-05-01T08:50:19.947Z,39.60
2019-05-01T08:52:49.116Z,32.58
2019-05-01T08:55:19.526Z,34.23
2019-05-01T08:57:50.018Z,32.80
2019-05-01T09:00:20.440Z,34.63
2019-05-01T09:02:50.931Z,35.68
2019-05-01T09:05:29.119Z,38.88
2019-05-01T09:07:56.019Z,37.60
2019-05-01T09:10:26.526Z,39.13
2019-05-01T09:12:56.942Z,34.27
2019-05-01T09:15:27.345Z,35.25
2019-05-01T09:17:57.904Z,40.20
2019-05-01T09:20:28.832Z,33.83
2019-05-01T09:22:59.325Z,31.15
2019-05-01T09:25:40.407Z,35.35
2019-05-01T09:28:12.537Z,35.60
2019-05-01T09:30:47.675Z,31.55
2019-05-01T09:33:18.124Z,35.63
2019-05-01T09:35:48.615Z,33.98
2019-05-01T09:38:19.083Z,32.63
2019-05-01T09:40:49.542Z,29.92
2019-05-01T09:43:19.930Z,40.92
2019-05-01T09:45:50.284Z,34.10
2019-05-01T09:48:20.729Z,33.48
2019-05-01T09:51:07.771Z,31.95
2019-05-01T09:53:42.495Z,35.52
2019-05-01T09:56:14.465Z,33.78
2019-05-01T09:58:45.471Z,31.65
2019-05-01T10:01:15.986Z,36.58
2019-05-01T10:03:49.411Z,36.33
2019-05-01T10:06:18.889Z,39.23
2019-05-01T10:08:49.363Z,38.92
2019-05-01T10:11:20.676Z,28.85
2019-05-01T10:13:53.797Z,31.25
2019-05-01T10:16:24.105Z,31.30
2019-05-01T10:18:55.346Z,28.50
2019-05-01T10:21:27.292Z,28.15
2019-05-01T10:23:57.941Z,22.35
2019-05-01T10:26:29.922Z,23.35
2019-05-01T10:29:14.105Z,27.55
2019-05-01T10:31:55.070Z,17.70
2019-05-01T10:34:30.070Z,20.75
2019-05-01T10:37:00.476Z,17.27
2019-05-01T10:39:30.961Z,21.10
2019-05-01T10:42:01.371Z,14.87
2019-05-01T10:44:31.737Z,24.82
2019-05-01T10:47:02.289Z,17.42
2019-05-01T10:49:32.803Z,18.35
2019-05-01T10:52:13.671Z,15.35
2019-05-01T10:54:35.482Z,19.50
2019-05-01T10:57:05.904Z,16.30
2019-05-01T10:59:36.476Z,21.17
2019-05-01T11:02:08.507Z,14.87
2019-05-01T11:04:39.073Z,19.95
2019-05-01T11:07:09.568Z,16.00
2019-05-01T11:09:40.402Z,14.68
2019-05-01T11:12:11.635Z,21.50
2019-05-01T11:14:42.137Z,17.95
2019-05-01T11:17:12.612Z,26.07
2019-05-01T11:19:43.184Z,17.50
2019-05-01T11:22:13.607Z,12.75
2019-05-01T11:24:44.085Z,19.67
2019-05-01T11:27:14.631Z,24.80
2019-05-01T11:29:45.143Z,13.22
2019-05-01T11:32:25.973Z,15.40
2019-05-01T11:35:06.888Z,15.35
2019-05-01T11:37:41.874Z,27.20
2019-05-01T11:40:32.283Z,16.50
2019-05-01T11:43:02.889Z,22.25
2019-05-01T11:45:33.354Z,19.80
2019-05-01T11:48:03.963Z,13.72
2019-05-01T11:50:34.526Z,18.40
2019-05-01T11:53:05.073Z,13.65
2019-05-01T11:55:35.606Z,14.73
2019-05-01T11:58:06.244Z,16.77
2019-05-01T12:00:36.740Z,21.30
2019-05-01T12:03:07.263Z,13.32
2019-05-01T12:05:37.809Z,11.03
2019-05-01T12:08:08.173Z,8.48
2019-05-01T12:10:38.487Z,11.10
2019-05-01T12:13:09.797Z,7.25
2019-05-01T12:15:41.783Z,12.63
2019-05-01T12:18:12.233Z,14.90
2019-05-01T12:20:42.827Z,10.60
2019-05-01T12:23:15.301Z,19.02
2019-05-01T12:25:45.791Z,11.43
2019-05-01T12:28:16.234Z,13.53
2019-05-01T12:30:46.735Z,15.65
2019-05-01T12:33:17.217Z,10.75
2019-05-01T12:35:49.303Z,15.00
2019-05-01T12:38:19.806Z,9.05
2019-05-01T12:41:07.784Z,8.20
2019-05-01T12:43:38.151Z,5.25
2019-05-01T12:46:10.092Z,7.97
2019-05-01T12:48:40.350Z,13.72
2019-05-01T12:51:11.012Z,9.38
2019-05-01T12:53:54.678Z,13.93
2019-05-01T12:56:26.769Z,11.78
2019-05-01T12:58:57.219Z,13.90
2019-05-01T13:01:27.724Z,7.35
2019-05-01T13:03:58.050Z,12.00
2019-05-01T13:06:28.446Z,11.95
2019-05-01T13:08:58.960Z,12.07
2019-05-01T13:11:29.413Z,10.50
2019-05-01T13:14:00.653Z,11.83
2019-05-01T13:16:31.053Z,7.90
2019-05-01T13:19:01.294Z,7.15
2019-05-01T13:21:31.757Z,10.58
2019-05-01T13:24:02.194Z,7.75
2019-05-01T13:26:34.153Z,8.28
2019-05-01T13:29:06.729Z,14.00
2019-05-01T13:31:38.747Z,21.27
2019-05-01T13:34:10.263Z,4.37
2019-05-01T13:36:40.695Z,12.07
2019-05-01T13:39:12.438Z,8.08
2019-05-01T13:41:42.864Z,7.92
2019-05-01T13:44:13.190Z,10.05
2019-05-01T13:46:43.655Z,5.22
2019-05-01T13:49:14.048Z,11.55
2019-05-01T13:51:44.597Z,18.20
2019-05-01T13:54:15.102Z,7.85
2019-05-01T13:56:45.464Z,8.28
2019-05-01T13:59:16.229Z,11.08
2019-05-01T14:01:46.700Z,8.10
2019-05-01T14:04:17.675Z,6.20
2019-05-01T14:06:48.166Z,14.93
2019-05-01T14:09:20.168Z,13.45
2019-05-01T14:11:50.611Z,7.30
2019-05-01T14:14:21.776Z,5.05
2019-05-01T14:16:52.173Z,4.22
2019-05-01T14:19:22.512Z,8.40
2019-05-01T14:21:54.554Z,11.93
2019-05-01T14:24:26.544Z,8.55
2019-05-01T14:26:56.908Z,14.15
2019-05-01T14:29:27.337Z,30.75
2019-05-01T14:31:57.842Z,18.57
2019-05-01T14:34:28.272Z,17.50
2019-05-01T14:36:58.731Z,18.52
2019-05-01T14:39:29.149Z,12.28
2019-05-01T14:41:59.639Z,8.90
2019-05-01T14:44:36.535Z,12.82
2019-05-01T14:47:02.365Z,15.05
2019-05-01T14:49:32.833Z,6.58
2019-05-01T14:52:03.147Z,7.70
2019-05-01T14:54:33.490Z,9.15
2019-05-01T14:57:03.893Z,7.62
2019-05-01T14:59:34.280Z,12.63
2019-05-01T15:02:04.826Z,15.28
2019-05-01T15:04:35.238Z,11.48
2019-05-01T15:07:05.948Z,10.10
2019-05-01T15:09:36.467Z,7.80
2019-05-01T15:12:08.519Z,6.53
2019-05-01T15:14:44.302Z,6.05
2019-05-01T15:17:16.264Z,5.85
2019-05-01T15:19:51.182Z,7.67
2019-05-01T15:22:21.677Z,11.50
2019-05-01T15:24:52.122Z,9.25
2019-05-01T15:27:22.552Z,10.30
2019-05-01T15:29:53.017Z,8.55
2019-05-01T15:32:23.414Z,10.13
2019-05-01T15:34:53.890Z,7.80
2019-05-01T15:37:24.625Z,8.53
2019-05-01T15:39:56.551Z,10.50
2019-05-01T15:42:31.402Z,8.78
2019-05-01T15:45:01.790Z,7.92
2019-05-01T15:47:32.165Z,7.92
2019-05-01T15:50:02.487Z,8.10
2019-05-01T15:52:32.848Z,13.68
2019-05-01T15:55:03.738Z,4.30
2019-05-01T15:57:34.129Z,4.90
2019-05-01T16:00:07.759Z,10.10
2019-05-01T16:02:38.192Z,13.20
2019-05-01T16:05:08.640Z,7.78
2019-05-01T16:07:39.066Z,10.35
2019-05-01T16:10:12.676Z,15.70
2019-05-01T16:12:50.468Z,11.35
2019-05-01T16:15:23.532Z,10.58
2019-05-01T16:17:54.001Z,9.58
2019-05-01T16:20:24.366Z,6.80
2019-05-01T16:22:54.951Z,13.98
2019-05-01T16:25:25.374Z,11.68
2019-05-01T16:27:55.855Z,13.68
2019-05-01T16:30:27.421Z,8.18
2019-05-01T16:32:57.822Z,9.10
2019-05-01T16:35:28.151Z,8.38
2019-05-01T16:38:00.122Z,9.63
2019-05-01T16:40:37.799Z,7.80
2019-05-01T16:43:10.015Z,41.35
2019-05-01T16:45:40.587Z,12.90
2019-05-01T16:48:11.187Z,342.35
2019-05-01T16:50:41.671Z,90.00
2019-05-01T16:53:12.355Z,20.82
2019-05-01T16:55:43.221Z,22.95
2019-05-01T16:58:15.076Z,87.30
2019-05-01T17:01:00.995Z,70.12
2019-05-01T17:03:36.073Z,30.90
2019-05-01T17:06:19.968Z,17.57
2019-05-01T17:08:56.468Z,13.22
2019-05-01T17:11:28.605Z,14.38
2019-05-01T17:13:59.362Z,13.43
2019-05-01T17:16:32.861Z,19.48
2019-05-01T17:19:04.038Z,18.25
2019-05-01T17:21:35.401Z,15.43
2019-05-01T17:24:06.100Z,16.12
2019-05-01T17:26:36.509Z,12.30
2019-05-01T17:29:07.033Z,9.40
2019-05-01T17:31:37.290Z,6.30
2019-05-01T17:34:09.797Z,7.08
2019-05-01T17:36:40.171Z,10.45
2019-05-01T17:39:10.830Z,6.87
2019-05-01T17:41:41.101Z,5.00
2019-05-01T17:44:11.497Z,12.15
2019-05-01T17:46:46.787Z,5.58
2019-05-01T17:49:13.920Z,5.85
2019-05-01T17:51:47.562Z,3.35
2019-05-01T17:54:17.972Z,8.33
2019-05-01T17:56:53.138Z,8.65
2019-05-01T17:59:24.711Z,8.03
2019-05-01T18:02:14.643Z,4.17
2019-05-01T18:04:46.598Z,5.47
2019-05-01T18:07:16.857Z,4.92
2019-05-01T18:09:47.244Z,5.47
2019-05-01T18:12:17.496Z,4.10
2019-05-01T18:14:48.981Z,5.28
2019-05-01T18:17:26.009Z,4.78
2019-05-01T18:19:56.377Z,6.15
2019-05-01T18:22:37.081Z,5.30
2019-05-01T18:25:28.123Z,2.45
2019-05-01T18:28:08.822Z,6.70
2019-05-01T18:30:45.140Z,8.03
2019-05-01T18:33:21.988Z,8.43
2019-05-01T18:35:55.229Z,7.37
2019-05-01T18:38:31.060Z,7.92
2019-05-01T18:41:17.761Z,15.15
2019-05-01T18:43:48.258Z,14.65
2019-05-01T18:46:24.548Z,18.77
2019-05-01T18:48:54.173Z,7.42
2019-05-01T18:51:25.147Z,7.17
2019-05-01T18:53:58.822Z,10.68
2019-05-01T18:56:29.302Z,15.55
2019-05-01T18:59:06.770Z,7.42
2019-05-01T19:01:37.257Z,10.25
2019-05-01T19:04:07.683Z,6.58
2019-05-01T19:06:41.357Z,8.15
2019-05-01T19:09:15.138Z,6.83
2019-05-01T19:11:46.173Z,9.80
2019-05-01T19:14:17.919Z,5.97
2019-05-01T19:16:48.420Z,5.80
2019-05-01T19:19:18.839Z,2.58
2019-05-01T19:21:49.230Z,6.62
2019-05-01T19:24:19.742Z,2.62
2019-05-01T19:26:50.182Z,5.35
2019-05-01T19:29:31.903Z,6.50
2019-05-01T19:31:58.210Z,7.62
2019-05-01T19:34:30.588Z,6.97
2019-05-01T19:37:00.624Z,3.40
2019-05-01T19:39:42.846Z,10.57
2019-05-01T19:42:03.403Z,10.08
2019-05-01T19:44:33.809Z,8.48
2019-05-01T19:47:04.158Z,8.47
2019-05-01T19:49:34.578Z,10.07
2019-05-01T19:52:05.048Z,11.73
2019-05-01T19:54:39.841Z,13.10
2019-05-01T19:57:11.738Z,16.67
2019-05-01T19:59:42.129Z,11.43
2019-05-01T20:02:17.326Z,10.90
2019-05-01T20:04:50.500Z,6.27
2019-05-01T20:07:21.528Z,11.10
2019-05-01T20:09:57.149Z,10.53
2019-05-01T20:12:23.260Z,10.27
2019-05-01T20:14:53.774Z,8.33
2019-05-01T20:17:24.095Z,9.83
2019-05-01T20:19:55.223Z,18.40
2019-05-01T20:22:25.685Z,10.50
2019-05-01T20:24:56.116Z,7.50
2019-05-01T20:27:27.769Z,9.57
2019-05-01T20:29:59.104Z,6.70
2019-05-01T20:32:31.908Z,9.00
2019-05-01T20:35:02.203Z,6.67
2019-05-01T20:37:32.582Z,10.00
2019-05-01T20:40:11.009Z,12.00
2019-05-01T20:42:41.064Z,9.93
2019-05-01T20:45:17.517Z,8.17
2019-05-01T20:47:48.034Z,9.63
2019-05-01T20:50:17.958Z,8.53
2019-05-01T20:52:48.331Z,8.83
2019-05-01T20:55:18.653Z,8.83
2019-05-01T20:57:49.964Z,10.27
2019-05-01T21:00:25.496Z,7.00
2019-05-01T21:02:55.873Z,7.73
2019-05-01T21:05:29.230Z,4.07
2019-05-01T21:08:05.532Z,9.50
2019-05-01T21:10:50.496Z,5.67
2019-05-01T21:13:23.119Z,5.20
2019-05-01T21:16:01.535Z,5.23
2019-05-01T21:18:28.508Z,5.80
2019-05-01T21:21:03.329Z,5.63
2019-05-01T21:23:33.510Z,5.03
2019-05-01T21:26:03.993Z,7.47
2019-05-01T21:28:34.863Z,3.77
2019-05-01T21:31:05.142Z,7.30
2019-05-01T21:33:35.511Z,3.83
2019-05-01T21:36:08.403Z,4.37
2019-05-01T21:38:42.365Z,5.50
2019-05-01T21:41:12.632Z,7.53
2019-05-01T21:43:42.932Z,2.30
2019-05-01T21:46:14.853Z,6.40
2019-05-01T21:48:47.863Z,4.30
2019-05-01T21:51:19.679Z,7.20
2019-05-01T21:53:50.013Z,4.87
2019-05-01T21:56:20.240Z,4.53
2019-05-01T21:58:50.596Z,4.40
2019-05-01T22:01:20.802Z,3.73
2019-05-01T22:03:52.541Z,5.33
2019-05-01T22:06:23.074Z,3.27
2019-05-01T22:08:55.729Z,3.47
2019-05-01T22:11:26.589Z,3.87
2019-05-01T22:14:08.623Z,3.07
2019-05-01T22:16:36.163Z,2.10
2019-05-01T22:19:17.140Z,6.60
2019-05-01T22:22:13.008Z,3.50
2019-05-01T22:25:03.253Z,6.97
2019-05-01T22:27:38.301Z,8.33
2019-05-01T22:33:19.149Z,4.03
2019-05-01T22:35:51.296Z,5.60
2019-05-01T22:38:21.760Z,8.43
2019-05-01T22:41:05.342Z,3.43
2019-05-01T22:43:26.218Z,7.10
2019-05-01T22:46:01.750Z,4.97
2019-05-01T22:48:28.623Z,4.30
2019-05-01T22:51:00.510Z,5.00
2019-05-01T22:53:30.887Z,3.90
2019-05-01T22:56:02.341Z,3.47
2019-05-01T22:58:33.313Z,6.57
2019-05-01T23:01:05.011Z,10.63
2019-05-01T23:03:49.128Z,5.67
2019-05-01T23:06:19.472Z,5.30
2019-05-01T23:08:49.928Z,5.77
2019-05-01T23:11:21.053Z,4.97
2019-05-01T23:13:51.404Z,5.23
2019-05-01T23:16:23.436Z,6.90
2019-05-01T23:18:53.804Z,7.27
2019-05-01T23:21:24.151Z,7.47
2019-05-01T23:24:00.186Z,9.03
2019-05-01T23:26:28.007Z,7.50
2019-05-01T23:28:58.380Z,4.97
2019-05-01T23:31:28.939Z,7.13
2019-05-01T23:33:59.285Z,4.87
2019-05-01T23:36:29.597Z,4.40
2019-05-01T23:39:00.005Z,5.00
2019-05-01T23:41:45.267Z,5.47
2019-05-01T23:44:03.913Z,6.00
2019-05-01T23:46:34.463Z,7.50
2019-05-01T23:49:05.182Z,5.97
2019-05-01T23:51:35.486Z,4.03
2019-05-01T23:54:05.787Z,6.07
2019-05-01T23:56:36.380Z,5.03
2019-05-01T23:59:06.899Z,6.83
